createdAt,value
2023-07-24T00:00:36.613Z,3.90
2023-07-24T00:03:24.024Z,4.13
2023-07-24T00:05:51.151Z,3.60
2023-07-24T00:08:17.989Z,3.95
2023-07-24T00:10:45.120Z,4.07
2023-07-24T00:13:12.048Z,3.22
2023-07-24T00:15:40.009Z,3.85
2023-07-24T00:18:06.848Z,4.15
2023-07-24T00:20:34.004Z,3.78
2023-07-24T00:23:00.870Z,4.18
2023-07-24T00:25:28.060Z,3.58
2023-07-24T00:27:55.186Z,3.50
2023-07-24T00:30:22.331Z,4.18
2023-07-24T00:32:49.067Z,3.60
2023-07-24T00:35:16.319Z,4.28
2023-07-24T00:37:43.204Z,4.38
2023-07-24T00:40:10.688Z,4.00
2023-07-24T00:42:37.469Z,3.95
2023-07-24T00:45:05.626Z,4.55
2023-07-24T00:47:32.692Z,3.95
2023-07-24T00:50:00.026Z,4.82
2023-07-24T00:52:27.015Z,4.22
2023-07-24T00:54:54.811Z,3.78
2023-07-24T00:57:21.706Z,4.13
2023-07-24T00:59:48.840Z,4.53
2023-07-24T01:02:15.796Z,4.43
2023-07-24T01:04:43.023Z,4.45
2023-07-24T01:07:10.052Z,4.20
2023-07-24T01:09:37.170Z,3.58
2023-07-24T01:12:33.567Z,4.15
2023-07-24T01:15:15.370Z,4.50
2023-07-24T01:17:49.318Z,4.93
2023-07-24T01:20:18.733Z,4.38
2023-07-24T01:23:08.695Z,4.20
2023-07-24T01:25:37.764Z,4.35
2023-07-24T01:28:09.058Z,4.70
2023-07-24T01:30:36.432Z,3.75
2023-07-24T01:33:03.778Z,4.03
2023-07-24T01:35:33.100Z,4.40
2023-07-24T01:38:01.370Z,4.15
2023-07-24T01:40:28.519Z,4.75
2023-07-24T01:42:55.439Z,4.10
2023-07-24T01:45:25.089Z,4.88
2023-07-24T01:47:51.959Z,4.22
2023-07-24T01:50:19.072Z,4.78
2023-07-24T01:52:46.501Z,4.05
2023-07-24T01:55:13.640Z,4.70
2023-07-24T01:57:40.497Z,5.68
2023-07-24T02:00:08.398Z,5.22
2023-07-24T02:02:35.360Z,5.28
2023-07-24T02:05:02.590Z,4.60
2023-07-24T02:07:29.409Z,5.32
2023-07-24T02:09:56.600Z,5.05
2023-07-24T02:12:23.585Z,4.70
2023-07-24T02:14:52.672Z,4.75
2023-07-24T02:17:19.791Z,4.40
2023-07-24T02:19:46.929Z,5.47
2023-07-24T02:22:13.775Z,4.50
2023-07-24T02:24:40.968Z,5.32
2023-07-24T02:27:07.984Z,4.70
2023-07-24T02:29:35.178Z,5.15
2023-07-24T02:32:02.025Z,5.05
2023-07-24T02:34:29.578Z,5.40
2023-07-24T02:36:56.675Z,5.15
2023-07-24T02:39:23.840Z,5.18
2023-07-24T02:41:50.768Z,5.57
2023-07-24T02:44:17.895Z,5.40
2023-07-24T02:46:44.922Z,5.13
2023-07-24T02:49:12.031Z,4.63
2023-07-24T02:51:38.891Z,4.90
2023-07-24T02:54:07.380Z,5.50
2023-07-24T02:56:34.333Z,5.18
2023-07-24T02:59:01.456Z,5.60
2023-07-24T03:01:28.422Z,4.75
2023-07-24T03:03:55.503Z,4.68
2023-07-24T03:06:22.374Z,5.32
2023-07-24T03:08:49.613Z,4.88
2023-07-24T03:11:16.465Z,4.85
2023-07-24T03:13:44.194Z,5.20
2023-07-24T03:16:11.104Z,4.80
2023-07-24T03:18:38.284Z,5.63
2023-07-24T03:21:05.305Z,4.68
2023-07-24T03:23:32.431Z,4.80
2023-07-24T03:25:59.255Z,5.20
2023-07-24T03:28:26.945Z,4.85
2023-07-24T03:30:54.274Z,5.35
2023-07-24T03:33:22.077Z,5.13
2023-07-24T03:35:48.906Z,4.95
2023-07-24T03:38:16.042Z,5.20
2023-07-24T03:40:43.288Z,5.20
2023-07-24T03:43:10.397Z,5.95
2023-07-24T03:45:37.293Z,5.45
2023-07-24T03:48:04.545Z,5.60
2023-07-24T03:50:31.834Z,6.05
2023-07-24T03:52:59.030Z,5.43
2023-07-24T03:55:25.896Z,6.90
2023-07-24T03:57:53.038Z,5.40
2023-07-24T04:00:19.936Z,6.10
2023-07-24T04:02:48.464Z,5.20
2023-07-24T04:05:15.632Z,5.30
2023-07-24T04:07:42.772Z,5.72
2023-07-24T04:10:10.059Z,5.38
2023-07-24T04:12:37.205Z,5.47
2023-07-24T04:15:04.376Z,5.80
2023-07-24T04:17:31.524Z,4.93
2023-07-24T04:19:58.444Z,4.75
2023-07-24T04:22:26.506Z,5.32
2023-07-24T04:24:53.447Z,5.43
2023-07-24T04:27:20.553Z,5.68
2023-07-24T04:29:47.392Z,6.28
2023-07-24T04:32:14.501Z,6.07
2023-07-24T04:34:41.368Z,6.10
2023-07-24T04:37:08.544Z,5.05
2023-07-24T04:39:35.496Z,5.72
2023-07-24T04:42:02.660Z,5.60
2023-07-24T04:44:29.566Z,5.15
2023-07-24T04:46:57.011Z,5.60
2023-07-24T04:49:24.470Z,5.53
2023-07-24T04:51:52.196Z,6.32
2023-07-24T04:54:19.041Z,6.68
2023-07-24T04:56:46.131Z,6.57
2023-07-24T04:59:13.028Z,6.25
2023-07-24T05:01:40.227Z,6.65
2023-07-24T05:04:07.107Z,5.75
2023-07-24T05:06:36.416Z,5.85
2023-07-24T05:09:03.731Z,6.88
2023-07-24T05:11:30.915Z,6.55
2023-07-24T05:13:57.800Z,6.82
2023-07-24T05:16:24.970Z,5.82
2023-07-24T05:18:51.932Z,6.78
2023-07-24T05:21:19.053Z,6.68
2023-07-24T05:23:45.914Z,5.97
2023-07-24T05:26:13.085Z,6.72
2023-07-24T05:28:39.978Z,8.27
2023-07-24T05:31:07.324Z,7.20
2023-07-24T05:33:34.224Z,5.50
2023-07-24T05:36:05.209Z,6.40
2023-07-24T05:38:32.236Z,6.43
2023-07-24T05:41:00.747Z,7.53
2023-07-24T05:43:28.737Z,6.03
2023-07-24T05:45:57.414Z,7.43
2023-07-24T05:48:25.491Z,6.75
2023-07-24T05:50:53.026Z,5.97
2023-07-24T05:53:20.005Z,6.80
2023-07-24T05:55:47.192Z,7.28
2023-07-24T05:58:14.070Z,7.32
2023-07-24T06:00:41.190Z,7.43
2023-07-24T06:03:08.960Z,6.85
2023-07-24T06:05:36.875Z,6.75
2023-07-24T06:08:03.809Z,6.85
2023-07-24T06:10:30.949Z,7.20
2023-07-24T06:12:57.861Z,8.02
2023-07-24T06:15:24.969Z,6.85
2023-07-24T06:17:54.553Z,7.72
2023-07-24T06:20:22.308Z,6.85
2023-07-24T06:22:49.203Z,7.28
2023-07-24T06:25:16.369Z,6.85
2023-07-24T06:27:43.291Z,7.68
2023-07-24T06:30:15.564Z,8.23
2023-07-24T06:32:43.121Z,8.15
2023-07-24T06:35:10.534Z,7.70
2023-07-24T06:37:37.518Z,8.98
2023-07-24T06:40:05.426Z,9.57
2023-07-24T06:42:32.318Z,8.90
2023-07-24T06:44:59.494Z,8.07
2023-07-24T06:47:26.591Z,7.43
2023-07-24T06:49:53.708Z,8.93
2023-07-24T06:52:20.604Z,7.45
2023-07-24T06:54:47.876Z,8.02
2023-07-24T06:57:14.951Z,6.63
2023-07-24T06:59:42.149Z,7.30
2023-07-24T07:02:09.038Z,7.00
2023-07-24T07:04:36.141Z,6.50
2023-07-24T07:07:03.230Z,6.28
2023-07-24T07:09:30.578Z,6.72
2023-07-24T07:11:57.466Z,5.72
2023-07-24T07:14:24.601Z,6.30
2023-07-24T07:16:51.503Z,6.85
2023-07-24T07:19:18.580Z,7.30
2023-07-24T07:21:45.453Z,6.63
2023-07-24T07:24:12.640Z,6.45
2023-07-24T07:26:39.780Z,7.50
2023-07-24T07:29:07.104Z,6.28
2023-07-24T07:31:34.019Z,7.45
2023-07-24T07:34:01.223Z,7.15
2023-07-24T07:36:28.505Z,6.85
2023-07-24T07:38:55.729Z,7.07
2023-07-24T07:41:22.601Z,7.38
2023-07-24T07:43:49.775Z,6.70
2023-07-24T07:46:16.931Z,6.25
2023-07-24T07:48:44.089Z,7.03
2023-07-24T07:51:10.878Z,7.32
2023-07-24T07:53:38.220Z,6.75
2023-07-24T07:56:05.543Z,6.70
2023-07-24T07:58:32.774Z,6.78
2023-07-24T08:00:59.720Z,6.25
2023-07-24T08:03:26.987Z,6.53
2023-07-24T08:05:58.705Z,6.80
2023-07-24T08:08:26.606Z,6.25
2023-07-24T08:10:53.450Z,7.57
2023-07-24T08:13:20.659Z,7.50
2023-07-24T08:15:47.588Z,7.38
2023-07-24T08:18:15.085Z,6.15
2023-07-24T08:20:42.046Z,6.65
2023-07-24T08:23:09.193Z,6.38
2023-07-24T08:25:36.045Z,6.47
2023-07-24T08:28:06.181Z,5.93
2023-07-24T08:30:35.307Z,8.43
2023-07-24T08:33:02.715Z,7.38
2023-07-24T08:35:30.087Z,8.23
2023-07-24T08:37:57.467Z,19.95
2023-07-24T08:40:24.329Z,6.38
2023-07-24T08:42:54.272Z,7.15
2023-07-24T08:45:21.608Z,7.63
2023-07-24T08:47:49.651Z,5.50
2023-07-24T08:50:18.243Z,7.93
2023-07-24T08:52:47.643Z,6.47
2023-07-24T08:55:14.696Z,5.85
2023-07-24T08:57:41.865Z,6.53
2023-07-24T09:00:09.316Z,6.53
2023-07-24T09:02:37.171Z,6.15
2023-07-24T09:05:05.009Z,6.30
2023-07-24T09:07:32.497Z,6.82
2023-07-24T09:09:59.892Z,6.30
2023-07-24T09:12:26.834Z,6.38
2023-07-24T09:15:08.369Z,6.25
2023-07-24T09:17:35.868Z,6.63
2023-07-24T09:20:04.972Z,6.10
2023-07-24T09:22:32.872Z,6.60
2023-07-24T09:25:04.469Z,5.78
2023-07-24T09:27:32.663Z,6.00
2023-07-24T09:30:00.577Z,6.57
2023-07-24T09:32:28.569Z,6.30
2023-07-24T09:34:56.128Z,7.03
2023-07-24T09:37:31.835Z,5.78
2023-07-24T09:40:00.280Z,6.65
2023-07-24T09:42:44.109Z,6.53
2023-07-24T09:45:23.432Z,5.93
2023-07-24T09:47:56.742Z,7.15
2023-07-24T09:50:27.796Z,6.18
2023-07-24T09:52:56.556Z,6.32
2023-07-24T09:55:30.945Z,6.25
2023-07-24T09:57:59.927Z,6.18
2023-07-24T10:00:28.132Z,6.70
2023-07-24T10:02:55.275Z,6.65
2023-07-24T10:05:22.816Z,6.25
2023-07-24T10:07:50.868Z,6.70
2023-07-24T10:10:18.492Z,7.28
2023-07-24T10:12:45.833Z,7.28
2023-07-24T10:15:13.291Z,5.90
2023-07-24T10:17:43.311Z,7.03
2023-07-24T10:20:12.626Z,6.85
2023-07-24T10:22:43.787Z,6.40
2023-07-24T10:25:12.411Z,7.25
2023-07-24T10:27:50.454Z,6.47
2023-07-24T10:30:33.583Z,6.93
2023-07-24T10:33:31.217Z,6.60
2023-07-24T10:36:07.204Z,6.45
2023-07-24T10:38:40.296Z,7.47
2023-07-24T10:41:09.966Z,7.75
2023-07-24T10:43:49.237Z,7.63
2023-07-24T10:46:21.174Z,6.25
2023-07-24T10:48:50.587Z,7.05
2023-07-24T10:51:18.427Z,8.82
2023-07-24T10:53:49.776Z,6.32
2023-07-24T10:56:18.244Z,7.30
2023-07-24T10:58:45.227Z,7.25
2023-07-24T11:01:12.984Z,8.38
2023-07-24T11:03:42.962Z,7.22
2023-07-24T11:06:15.623Z,6.80
2023-07-24T11:08:43.226Z,8.55
2023-07-24T11:11:10.459Z,7.47
2023-07-24T11:13:39.122Z,7.05
2023-07-24T11:16:08.088Z,6.38
2023-07-24T11:18:54.707Z,6.88
2023-07-24T11:21:24.850Z,7.38
2023-07-24T11:23:54.198Z,7.18
2023-07-24T11:26:26.267Z,6.70
2023-07-24T11:28:54.826Z,7.53
2023-07-24T11:31:22.273Z,6.40
2023-07-24T11:33:51.553Z,6.68
2023-07-24T11:36:18.922Z,7.50
2023-07-24T11:38:47.227Z,6.88
2023-07-24T11:41:15.251Z,10.63
2023-07-24T11:43:50.496Z,6.55
2023-07-24T11:46:28.619Z,7.75
2023-07-24T11:48:58.567Z,6.78
2023-07-24T11:51:28.726Z,6.90
2023-07-24T11:54:12.358Z,8.20
2023-07-24T11:56:39.302Z,7.07
2023-07-24T11:59:13.981Z,6.18
2023-07-24T12:01:41.255Z,5.80
2023-07-24T12:04:08.843Z,6.55
2023-07-24T12:06:36.860Z,6.55
2023-07-24T12:09:06.510Z,6.80
2023-07-24T12:11:34.035Z,6.28
2023-07-24T12:14:01.202Z,8.20
2023-07-24T12:16:29.725Z,6.60
2023-07-24T12:18:56.947Z,6.50
2023-07-24T12:21:23.798Z,6.05
2023-07-24T12:23:50.950Z,6.40
2023-07-24T12:26:17.797Z,6.20
2023-07-24T12:28:44.880Z,6.82
2023-07-24T12:31:11.869Z,6.07
2023-07-24T12:33:39.220Z,7.00
2023-07-24T12:36:06.109Z,5.80
2023-07-24T12:38:33.242Z,5.60
2023-07-24T12:41:00.192Z,5.43
2023-07-24T12:43:27.362Z,5.88
2023-07-24T12:45:54.331Z,5.38
2023-07-24T12:48:22.101Z,6.38
2023-07-24T12:50:49.070Z,6.10
2023-07-24T12:53:17.877Z,5.43
2023-07-24T12:55:50.459Z,5.90
2023-07-24T12:58:17.599Z,8.07
2023-07-24T13:00:44.451Z,6.18
2023-07-24T13:03:11.731Z,5.93
2023-07-24T13:05:39.364Z,6.25
2023-07-24T13:08:06.501Z,6.32
2023-07-24T13:10:33.413Z,5.22
2023-07-24T13:13:02.186Z,6.30
2023-07-24T13:15:30.762Z,6.63
2023-07-24T13:17:58.075Z,6.65
2023-07-24T13:20:26.052Z,6.15
2023-07-24T13:22:53.188Z,6.25
2023-07-24T13:25:20.282Z,6.22
2023-07-24T13:27:47.496Z,5.13
2023-07-24T13:30:14.337Z,5.80
2023-07-24T13:32:41.648Z,4.95
2023-07-24T13:35:08.911Z,6.82
2023-07-24T13:37:36.153Z,5.40
2023-07-24T13:40:03.135Z,6.88
2023-07-24T13:42:30.299Z,6.32
2023-07-24T13:44:57.224Z,7.28
2023-07-24T13:47:24.418Z,6.72
2023-07-24T13:49:51.336Z,7.03
2023-07-24T13:52:18.579Z,6.72
2023-07-24T13:54:45.481Z,7.20
2023-07-24T13:57:14.525Z,7.95
2023-07-24T13:59:41.370Z,8.00
2023-07-24T14:02:08.640Z,8.20
2023-07-24T14:04:35.665Z,7.38
2023-07-24T14:07:02.833Z,8.25
2023-07-24T14:09:29.756Z,7.80
2023-07-24T14:11:57.061Z,7.25
2023-07-24T14:14:24.763Z,8.43
2023-07-24T14:16:52.110Z,8.90
2023-07-24T14:19:19.186Z,8.27
2023-07-24T14:21:46.525Z,7.95
2023-07-24T14:24:13.497Z,8.18
2023-07-24T14:26:40.685Z,8.00
2023-07-24T14:29:07.641Z,11.90
2023-07-24T14:31:35.138Z,9.93
2023-07-24T14:34:02.245Z,10.55
2023-07-24T14:36:34.764Z,12.70
2023-07-24T14:41:29.549Z,10.43
2023-07-24T14:43:56.738Z,9.38
2023-07-24T14:46:23.937Z,7.95
2023-07-24T14:48:50.880Z,8.05
2023-07-24T14:51:17.984Z,8.77
2023-07-24T14:53:44.840Z,8.15
2023-07-24T14:56:12.015Z,8.48
2023-07-24T14:58:38.954Z,7.47
2023-07-24T15:01:06.516Z,8.93
2023-07-24T15:03:33.617Z,8.25
2023-07-24T15:06:04.909Z,7.88
2023-07-24T15:08:32.083Z,8.48
2023-07-24T15:10:59.376Z,8.25
2023-07-24T15:13:26.235Z,8.63
2023-07-24T15:15:53.540Z,10.27
2023-07-24T15:18:20.459Z,8.65
2023-07-24T15:20:47.675Z,7.28
2023-07-24T15:23:14.664Z,6.65
2023-07-24T15:25:41.962Z,7.82
2023-07-24T15:28:10.056Z,8.30
2023-07-24T15:30:37.172Z,7.65
2023-07-24T15:33:04.151Z,8.02
2023-07-24T15:35:31.343Z,7.15
2023-07-24T15:37:58.198Z,7.65
2023-07-24T15:40:25.395Z,6.82
2023-07-24T15:42:52.550Z,6.63
2023-07-24T15:45:19.849Z,6.95
2023-07-24T15:47:46.738Z,7.18
2023-07-24T15:50:13.937Z,8.07
2023-07-24T15:52:40.794Z,9.18
2023-07-24T15:55:08.353Z,8.30
2023-07-24T15:57:35.873Z,8.00
2023-07-24T16:00:03.174Z,9.05
2023-07-24T16:02:30.226Z,8.05
2023-07-24T16:04:57.579Z,8.15
2023-07-24T16:07:24.411Z,8.65
2023-07-24T16:09:51.571Z,8.50
2023-07-24T16:12:18.468Z,8.55
2023-07-24T16:14:45.609Z,9.70
2023-07-24T16:17:12.554Z,8.13
2023-07-24T16:19:40.153Z,8.35
2023-07-24T16:22:07.464Z,9.13
2023-07-24T16:24:35.207Z,8.48
2023-07-24T16:27:05.054Z,6.85
2023-07-24T16:29:33.504Z,7.28
2023-07-24T16:32:00.664Z,8.85
2023-07-24T16:34:29.345Z,8.38
2023-07-24T16:36:57.036Z,7.10
2023-07-24T16:39:24.496Z,8.05
2023-07-24T16:41:52.764Z,7.47
2023-07-24T16:44:19.895Z,7.53
2023-07-24T16:46:46.738Z,7.53
2023-07-24T16:49:13.970Z,7.13
2023-07-24T16:51:40.927Z,7.53
2023-07-24T16:54:08.099Z,8.13
2023-07-24T16:56:34.932Z,7.70
2023-07-24T16:59:02.060Z,6.63
2023-07-24T17:01:29.254Z,7.05
2023-07-24T17:03:58.936Z,6.72
2023-07-24T17:06:26.132Z,6.40
2023-07-24T17:08:53.347Z,8.10
2023-07-24T17:11:20.218Z,6.88
2023-07-24T17:13:48.338Z,6.18
2023-07-24T17:16:15.315Z,7.15
2023-07-24T17:18:42.413Z,6.65
2023-07-24T17:21:09.274Z,7.15
2023-07-24T17:23:36.488Z,6.95
2023-07-24T17:26:03.376Z,6.10
2023-07-24T17:28:30.455Z,5.65
2023-07-24T17:30:57.354Z,6.10
2023-07-24T17:33:26.331Z,6.72
2023-07-24T17:35:53.440Z,6.43
2023-07-24T17:38:20.538Z,6.20
2023-07-24T17:40:47.469Z,6.55
2023-07-24T17:43:14.549Z,6.15
2023-07-24T17:45:41.376Z,6.45
2023-07-24T17:48:08.609Z,6.35
2023-07-24T17:50:36.157Z,6.40
2023-07-24T17:53:03.275Z,5.70
2023-07-24T17:55:30.181Z,6.95
2023-07-24T17:57:57.373Z,6.45
2023-07-24T18:00:24.282Z,6.88
2023-07-24T18:02:51.535Z,5.93
2023-07-24T18:05:18.571Z,6.68
2023-07-24T18:07:45.735Z,6.45
2023-07-24T18:10:12.784Z,5.20
2023-07-24T18:12:40.674Z,5.28
2023-07-24T18:15:08.044Z,5.95
2023-07-24T18:17:35.417Z,5.47
2023-07-24T18:20:02.368Z,6.00
2023-07-24T18:22:29.812Z,5.90
2023-07-24T18:24:56.755Z,6.32
2023-07-24T18:27:24.867Z,6.50
2023-07-24T18:29:51.936Z,5.38
2023-07-24T18:32:19.098Z,5.68
2023-07-24T18:34:46.073Z,5.80
2023-07-24T18:37:13.249Z,5.78
2023-07-24T18:39:40.196Z,5.90
2023-07-24T18:42:08.270Z,6.75
2023-07-24T18:44:35.999Z,6.13
2023-07-24T18:47:03.164Z,5.80
2023-07-24T18:49:30.105Z,6.38
2023-07-24T18:51:57.224Z,6.53
2023-07-24T18:54:24.123Z,6.20
2023-07-24T18:56:52.153Z,6.68
2023-07-24T18:59:19.026Z,5.60
2023-07-24T19:01:46.237Z,6.32
2023-07-24T19:04:13.166Z,6.18
2023-07-24T19:06:40.286Z,5.68
2023-07-24T19:09:07.147Z,6.40
2023-07-24T19:11:34.481Z,6.65
2023-07-24T19:14:01.519Z,6.00
2023-07-24T19:16:28.750Z,6.28
2023-07-24T19:18:55.734Z,6.10
2023-07-24T19:21:22.915Z,5.55
2023-07-24T19:23:49.775Z,6.15
2023-07-24T19:26:16.907Z,5.95
2023-07-24T19:28:43.905Z,6.88
2023-07-24T19:31:11.089Z,6.35
2023-07-24T19:33:37.955Z,5.75
2023-07-24T19:36:05.341Z,5.65
2023-07-24T19:38:32.184Z,6.60
2023-07-24T19:41:02.313Z,5.80
2023-07-24T19:43:29.209Z,5.47
2023-07-24T19:45:56.735Z,6.65
2023-07-24T19:48:25.813Z,5.30
2023-07-24T19:50:57.315Z,5.85
2023-07-24T19:53:25.486Z,5.90
2023-07-24T19:55:53.888Z,5.82
2023-07-24T19:58:32.066Z,5.90
2023-07-24T20:01:00.855Z,5.72
2023-07-24T20:03:28.836Z,5.82
2023-07-24T20:06:06.899Z,5.35
2023-07-24T20:08:35.638Z,5.53
2023-07-24T20:11:08.212Z,5.90
2023-07-24T20:13:36.302Z,6.20
2023-07-24T20:16:03.601Z,5.57
2023-07-24T20:18:30.564Z,6.72
2023-07-24T20:20:57.951Z,6.32
2023-07-24T20:23:24.871Z,5.00
2023-07-24T20:25:52.282Z,6.10
2023-07-24T20:28:21.599Z,5.97
2023-07-24T20:30:48.877Z,6.93
2023-07-24T20:33:16.400Z,6.47
2023-07-24T20:35:47.546Z,5.53
2023-07-24T20:38:28.807Z,5.93
2023-07-24T20:40:56.156Z,6.22
2023-07-24T20:43:23.142Z,6.15
2023-07-24T20:45:51.947Z,5.43
2023-07-24T20:48:19.616Z,5.72
2023-07-24T20:50:47.048Z,5.75
2023-07-24T20:53:14.012Z,6.28
2023-07-24T20:55:41.240Z,5.93
2023-07-24T20:58:08.101Z,5.35
2023-07-24T21:00:35.226Z,5.72
2023-07-24T21:03:02.277Z,6.15
2023-07-24T21:05:29.894Z,6.72
2023-07-24T21:07:59.826Z,5.68
2023-07-24T21:10:27.089Z,6.10
2023-07-24T21:12:53.973Z,5.22
2023-07-24T21:15:21.081Z,4.20
2023-07-24T21:17:48.018Z,5.63
2023-07-24T21:20:15.131Z,5.88
2023-07-24T21:22:42.003Z,4.72
2023-07-24T21:25:09.281Z,4.93
2023-07-24T21:27:36.238Z,5.22
2023-07-24T21:30:03.900Z,5.35
2023-07-24T21:32:32.960Z,6.05
2023-07-24T21:35:00.299Z,5.47
2023-07-24T21:37:27.219Z,5.32
2023-07-24T21:39:54.294Z,5.53
2023-07-24T21:42:21.178Z,5.85
2023-07-24T21:44:48.421Z,5.18
2023-07-24T21:47:15.239Z,4.90
2023-07-24T21:49:42.320Z,5.43
2023-07-24T21:52:09.146Z,6.03
2023-07-24T21:54:38.870Z,4.85
2023-07-24T21:57:07.758Z,6.07
2023-07-24T21:59:34.868Z,5.47
2023-07-24T22:02:01.779Z,4.72
2023-07-24T22:04:29.003Z,4.63
2023-07-24T22:06:56.179Z,5.55
2023-07-24T22:09:23.350Z,4.88
2023-07-24T22:11:50.166Z,4.82
2023-07-24T22:14:17.337Z,4.45
2023-07-24T22:16:44.204Z,4.25
2023-07-24T22:19:11.362Z,4.13
2023-07-24T22:21:38.225Z,3.78
2023-07-24T22:24:05.516Z,4.57
2023-07-24T22:26:32.351Z,8.85
2023-07-24T22:28:59.483Z,4.38
2023-07-24T22:31:26.393Z,4.18
2023-07-24T22:33:53.502Z,3.95
2023-07-24T22:36:20.351Z,3.88
2023-07-24T22:38:47.967Z,4.32
2023-07-24T22:41:15.051Z,4.03
2023-07-24T22:43:42.320Z,4.40
2023-07-24T22:46:09.433Z,4.55
2023-07-24T22:48:36.735Z,4.32
2023-07-24T22:51:03.534Z,4.20
2023-07-24T22:53:30.601Z,3.60
2023-07-24T22:55:57.435Z,3.50
2023-07-24T22:58:25.449Z,4.25
2023-07-24T23:00:52.303Z,4.70
2023-07-24T23:03:19.553Z,4.70
2023-07-24T23:05:46.600Z,4.25
2023-07-24T23:08:13.788Z,4.60
2023-07-24T23:10:40.613Z,4.65
2023-07-24T23:13:07.779Z,5.35
2023-07-24T23:15:34.805Z,4.55
2023-07-24T23:18:02.032Z,4.82
2023-07-24T23:20:28.889Z,4.30
2023-07-24T23:22:56.099Z,4.40
2023-07-24T23:25:22.943Z,3.97
2023-07-24T23:27:50.485Z,4.50
2023-07-24T23:30:17.341Z,4.10
2023-07-24T23:32:44.600Z,4.28
2023-07-24T23:35:11.581Z,4.35
2023-07-24T23:37:38.703Z,4.32
2023-07-24T23:40:06.118Z,4.30
2023-07-24T23:42:33.292Z,4.03
2023-07-24T23:45:00.108Z,4.38
2023-07-24T23:47:27.254Z,4.25
2023-07-24T23:49:54.383Z,4.45
2023-07-24T23:52:21.596Z,4.20
2023-07-24T23:54:48.555Z,4.75
2023-07-24T23:57:15.704Z,4.40
2023-07-24T23:59:42.544Z,3.70
